Time;durP1;ratioP1;P1;durP2;ratioP2;P2;SDS_P1;SDS_P2;PMS_P1;PMS_P2;Temp;Humidity;BMP_temperature;BMP_pressure;BME280_temperature;BME280_humidity;BME280_pressure;Samples;Min_cycle;Max_cycle;Signal;HPM_P1;HPM_P2
2022/03/08 00:02:04;;;;;;;7.70;6.40;;;3.40;68.90;;;;;;5060361;28;20017;-62
2022/03/08 00:04:30;;;;;;;7.10;4.88;;;3.50;68.80;;;;;;5079028;28;20020;-62
2022/03/08 00:06:56;;;;;;;8.00;6.97;;;3.40;68.60;;;;;;5078834;28;20059;-62
2022/03/08 00:09:22;;;;;;;8.30;6.75;;;3.50;68.70;;;;;;5070161;28;20074;-62
2022/03/08 00:11:47;;;;;;;14.40;5.55;;;3.50;68.50;;;;;;5073280;28;20025;-62
2022/03/08 00:14:13;;;;;;;7.22;6.43;;;3.40;68.20;;;;;;5066150;28;20029;-62
2022/03/08 00:16:39;;;;;;;8.77;6.95;;;3.40;68.20;;;;;;5078680;28;20024;-62
2022/03/08 00:19:05;;;;;;;10.23;7.20;;;3.50;68.20;;;;;;5075887;28;20067;-62
2022/03/08 00:21:30;;;;;;;7.22;5.20;;;3.50;68.10;;;;;;5077785;28;20029;-62
2022/03/08 00:23:57;;;;;;;8.38;6.50;;;3.50;68.10;;;;;;5076130;28;20488;-62
2022/03/08 00:26:23;;;;;;;7.88;6.60;;;3.50;68.10;;;;;;5069466;28;20517;-62
2022/03/08 00:28:49;;;;;;;8.65;7.32;;;3.50;67.80;;;;;;5077986;28;20099;-62
2022/03/08 00:31:14;;;;;;;8.18;7.07;;;3.50;67.80;;;;;;5076429;28;20040;-62
2022/03/08 00:33:41;;;;;;;8.82;6.90;;;3.50;67.80;;;;;;5046639;28;20111;-62
2022/03/08 00:36:07;;;;;;;8.70;7.07;;;3.50;67.80;;;;;;5076884;28;20105;-62
2022/03/08 00:38:33;;;;;;;7.90;6.97;;;3.50;67.80;;;;;;5067185;28;20040;-62
2022/03/08 00:40:59;;;;;;;7.05;5.32;;;3.50;67.80;;;;;;5075240;28;20028;-62
2022/03/08 00:43:25;;;;;;;6.20;4.43;;;3.50;67.80;;;;;;5074898;28;20032;-62
2022/03/08 00:45:50;;;;;;;7.57;4.55;;;3.40;67.90;;;;;;5078924;28;20020;-62
2022/03/08 00:48:16;;;;;;;6.97;6.00;;;3.40;68.10;;;;;;5064723;28;20017;-62
2022/03/08 00:50:42;;;;;;;7.68;4.75;;;3.50;68.10;;;;;;5061894;28;20029;-62
2022/03/08 00:53:08;;;;;;;7.88;6.68;;;3.40;67.80;;;;;;5067343;28;20047;-62
2022/03/08 00:55:35;;;;;;;5.03;4.38;;;3.50;68.00;;;;;;5070742;28;20433;-62
2022/03/08 00:58:01;;;;;;;6.72;6.03;;;3.40;67.80;;;;;;5058338;28;20029;-62
2022/03/08 01:00:29;;;;;;;7.25;4.65;;;3.50;68.00;;;;;;5075272;28;20021;-62
2022/03/08 01:02:55;;;;;;;7.70;6.05;;;3.40;67.90;;;;;;5076039;28;20119;-62
2022/03/08 01:05:21;;;;;;;6.65;4.68;;;3.40;67.90;;;;;;5077152;28;20048;-62
2022/03/08 01:07:47;;;;;;;7.75;6.93;;;3.40;67.80;;;;;;5077943;28;20067;-62
2022/03/08 01:10:16;;;;;;;6.97;4.50;;;3.40;68.00;;;;;;5078331;28;20044;-62
2022/03/08 01:12:43;;;;;;;7.55;6.10;;;3.40;67.80;;;;;;5077719;28;20044;-62
2022/03/08 01:15:10;;;;;;;10.80;5.28;;;3.40;67.80;;;;;;5068885;28;20029;-62
2022/03/08 01:17:36;;;;;;;7.55;6.47;;;3.40;67.70;;;;;;5070957;28;20028;-62
2022/03/08 01:20:04;;;;;;;6.32;4.32;;;3.50;68.00;;;;;;5073005;28;20388;-62
2022/03/08 01:22:30;;;;;;;8.43;6.60;;;3.40;67.90;;;;;;5077277;28;20024;-62
2022/03/08 01:24:56;;;;;;;8.15;6.53;;;3.40;68.00;;;;;;5077912;28;20017;-62
2022/03/08 01:27:21;;;;;;;8.65;6.80;;;3.50;67.90;;;;;;5071003;28;20025;-62
2022/03/08 01:29:47;;;;;;;8.25;6.65;;;3.50;67.90;;;;;;5077253;28;20032;-62
2022/03/08 01:32:13;;;;;;;7.75;6.45;;;3.50;67.90;;;;;;5077437;28;20059;-62
2022/03/08 01:34:39;;;;;;;11.68;7.72;;;3.50;68.00;;;;;;5077106;28;20028;-62
2022/03/08 01:37:05;;;;;;;7.47;5.00;;;3.50;68.10;;;;;;5068717;28;20419;-62
2022/03/08 01:39:31;;;;;;;7.88;6.78;;;3.40;67.80;;;;;;5079492;28;20055;-62
2022/03/08 01:41:57;;;;;;;9.88;7.60;;;3.40;68.10;;;;;;5057531;28;20021;-62
2022/03/08 01:44:22;;;;;;;6.43;4.32;;;3.40;68.00;;;;;;5060647;28;20071;-62
2022/03/08 01:46:48;;;;;;;6.90;4.32;;;3.30;68.00;;;;;;5064463;28;20033;-62
2022/03/08 01:49:14;;;;;;;7.65;6.43;;;3.30;68.20;;;;;;5084895;28;20028;-62
2022/03/08 01:51:42;;;;;;;7.45;4.57;;;3.30;68.30;;;;;;5080857;28;20032;-62
2022/03/08 01:54:09;;;;;;;9.82;7.25;;;3.30;68.30;;;;;;5074078;28;20024;-62
2022/03/08 01:56:36;;;;;;;7.82;5.13;;;3.30;68.30;;;;;;5076342;28;20039;-62
2022/03/08 01:59:02;;;;;;;7.85;6.93;;;3.30;68.20;;;;;;5077700;28;20024;-62
2022/03/08 02:01:28;;;;;;;7.65;6.93;;;3.30;68.00;;;;;;5075101;28;20031;-62
2022/03/08 02:03:54;;;;;;;6.30;4.78;;;3.30;67.90;;;;;;5077927;28;20484;-62
2022/03/08 02:06:20;;;;;;;11.40;7.50;;;3.30;67.70;;;;;;5076238;28;20024;-62
2022/03/08 02:08:46;;;;;;;8.65;5.63;;;3.30;67.80;;;;;;5063361;28;20480;-62
2022/03/08 02:11:13;;;;;;;8.50;7.15;;;3.30;67.80;;;;;;5076232;28;20028;-62
2022/03/08 02:13:39;;;;;;;8.35;5.20;;;3.30;67.80;;;;;;5073187;28;20025;-62
2022/03/08 02:16:05;;;;;;;5.88;4.38;;;3.30;67.70;;;;;;5070896;28;20073;-62
2022/03/08 02:18:31;;;;;;;7.30;6.22;;;3.30;67.90;;;;;;5075903;28;20028;-63
2022/03/08 02:21:03;;;;;;;7.45;4.75;;;3.30;68.00;;;;;;5076572;28;20435;-62
2022/03/08 02:23:29;;;;;;;8.10;6.45;;;3.30;67.80;;;;;;5076296;28;20029;-62
2022/03/08 02:25:55;;;;;;;7.80;5.05;;;3.30;68.10;;;;;;5077142;28;20024;-62
2022/03/08 02:28:22;;;;;;;9.00;4.80;;;3.30;67.90;;;;;;5076561;28;20036;-62
2022/03/08 02:30:48;;;;;;;6.70;4.60;;;3.20;68.00;;;;;;5076150;28;20477;-62
2022/03/08 02:33:13;;;;;;;7.00;6.30;;;3.20;68.20;;;;;;5076511;28;20043;-62
2022/03/08 02:35:39;;;;;;;6.30;4.70;;;3.20;68.50;;;;;;5050069;28;20024;-62
2022/03/08 02:38:06;;;;;;;8.98;6.50;;;3.20;68.30;;;;;;5078407;28;20059;-62
2022/03/08 02:40:36;;;;;;;7.45;5.03;;;3.30;68.50;;;;;;5076004;28;20032;-62
2022/03/08 02:43:03;;;;;;;7.20;4.63;;;3.30;68.50;;;;;;5076991;28;20020;-62
2022/03/08 02:45:29;;;;;;;9.40;6.22;;;3.20;68.60;;;;;;5087274;28;20012;-62
2022/03/08 02:47:55;;;;;;;8.55;4.22;;;3.30;68.80;;;;;;5076359;28;20024;-62
2022/03/08 02:50:22;;;;;;;6.85;5.60;;;3.20;68.70;;;;;;5073625;28;20025;-62
2022/03/08 02:52:51;;;;;;;7.13;4.43;;;3.30;68.90;;;;;;5066375;28;20027;-62
2022/03/08 02:55:19;;;;;;;8.68;6.45;;;3.20;68.70;;;;;;5084307;28;20559;-62
2022/03/08 02:57:45;;;;;;;5.35;4.03;;;3.20;69.10;;;;;;5077439;28;20024;-62
2022/03/08 03:00:14;;;;;;;7.63;5.50;;;3.20;69.00;;;;;;5076068;28;20052;-62
2022/03/08 03:02:39;;;;;;;6.35;4.38;;;3.20;69.50;;;;;;5075555;28;20021;-62
2022/03/08 03:05:06;;;;;;;5.80;3.88;;;3.10;69.60;;;;;;5077009;28;20027;-62
2022/03/08 03:07:32;;;;;;;6.68;5.90;;;3.10;69.90;;;;;;5076253;28;20028;-62
2022/03/08 03:09:58;;;;;;;6.97;4.40;;;3.10;71.00;;;;;;5059827;28;20029;-62
2022/03/08 03:12:24;;;;;;;7.68;5.85;;;3.10;70.50;;;;;;5061457;28;20029;-62
2022/03/08 03:14:50;;;;;;;7.10;5.35;;;3.10;71.00;;;;;;5057532;28;20104;-62
2022/03/08 03:17:19;;;;;;;6.75;4.35;;;3.10;71.30;;;;;;5076419;28;20035;-62
2022/03/08 03:19:44;;;;;;;8.32;6.25;;;3.00;71.30;;;;;;5076075;28;20024;-62
2022/03/08 03:22:10;;;;;;;7.78;4.45;;;3.10;71.90;;;;;;5068740;28;20487;-62
2022/03/08 03:24:36;;;;;;;8.50;6.50;;;3.00;71.70;;;;;;5075960;28;20044;-62
2022/03/08 03:27:02;;;;;;;6.70;4.25;;;3.10;72.10;;;;;;5078576;28;20051;-62
2022/03/08 03:29:28;;;;;;;7.38;5.32;;;3.00;72.00;;;;;;5078687;28;20032;-62
2022/03/08 03:31:54;;;;;;;7.05;5.97;;;3.10;72.20;;;;;;5088065;28;20027;-62
2022/03/08 03:34:20;;;;;;;7.32;4.75;;;3.10;72.20;;;;;;5076572;28;20017;-62
2022/03/08 03:36:45;;;;;;;7.60;6.45;;;3.10;71.80;;;;;;5064622;28;20032;-62
2022/03/08 03:39:11;;;;;;;6.95;6.13;;;3.10;72.00;;;;;;5078911;28;20041;-62
2022/03/08 03:41:37;;;;;;;7.15;4.65;;;3.20;71.80;;;;;;5079682;28;20028;-62
2022/03/08 03:44:03;;;;;;;5.05;4.15;;;3.10;71.30;;;;;;5078707;28;20024;-62
2022/03/08 03:46:29;;;;;;;6.88;5.68;;;3.10;71.50;;;;;;5079415;28;20380;-62
2022/03/08 03:48:55;;;;;;;7.60;6.40;;;3.10;71.50;;;;;;5079570;28;20020;-62
2022/03/08 03:51:20;;;;;;;8.23;6.22;;;3.20;71.20;;;;;;5079314;28;20100;-62
2022/03/08 03:53:46;;;;;;;7.47;6.25;;;3.20;70.90;;;;;;5078984;28;20396;-62
2022/03/08 03:56:12;;;;;;;8.18;6.55;;;3.20;70.40;;;;;;5071476;28;20025;-62
2022/03/08 03:58:38;;;;;;;6.88;5.13;;;3.30;70.40;;;;;;5072945;28;20070;-62
2022/03/08 04:01:04;;;;;;;7.28;6.07;;;3.20;70.20;;;;;;5078371;28;20017;-62
2022/03/08 04:03:30;;;;;;;6.88;5.63;;;3.20;70.30;;;;;;5078897;28;20070;-62
2022/03/08 04:05:56;;;;;;;7.10;6.00;;;3.30;70.30;;;;;;5064580;28;20484;-62
2022/03/08 04:08:22;;;;;;;6.25;4.40;;;3.30;70.00;;;;;;5057776;28;20020;-62
2022/03/08 04:10:49;;;;;;;9.32;5.43;;;3.30;69.80;;;;;;5078694;28;20064;-62
2022/03/08 04:13:15;;;;;;;7.75;6.00;;;3.20;69.90;;;;;;5078949;28;20029;-62
2022/03/08 04:15:42;;;;;;;7.85;4.50;;;3.30;69.80;;;;;;5074669;28;20024;-62
2022/03/08 04:18:08;;;;;;;8.00;4.38;;;3.30;69.50;;;;;;5078695;28;20043;-62
2022/03/08 04:20:34;;;;;;;7.93;6.20;;;3.20;69.50;;;;;;5066686;28;20032;-62
2022/03/08 04:22:59;;;;;;;5.22;4.40;;;3.20;69.50;;;;;;5085394;28;20047;-62
2022/03/08 04:25:25;;;;;;;6.75;3.92;;;3.20;69.30;;;;;;5078224;28;20461;-62
2022/03/08 04:27:51;;;;;;;8.07;5.95;;;3.20;69.30;;;;;;5080407;28;20360;-62
2022/03/08 04:30:17;;;;;;;6.28;4.15;;;3.20;69.40;;;;;;5071746;28;20020;-62
2022/03/08 04:32:43;;;;;;;7.30;5.90;;;3.20;69.50;;;;;;5078445;28;20409;-62
2022/03/08 04:35:09;;;;;;;6.82;5.88;;;3.20;69.50;;;;;;5075031;28;20021;-62
2022/03/08 04:37:37;;;;;;;7.63;6.03;;;3.30;69.10;;;;;;5070421;28;20392;-62
2022/03/08 04:40:07;;;;;;;7.10;5.95;;;3.30;68.90;;;;;;5077586;28;20037;-62
2022/03/08 04:42:33;;;;;;;7.25;4.53;;;3.30;68.70;;;;;;5085200;28;20089;-62
2022/03/08 04:44:59;;;;;;;6.13;4.38;;;3.30;68.60;;;;;;5078465;28;20468;-62
2022/03/08 04:47:24;;;;;;;5.50;4.90;;;3.20;68.80;;;;;;5060348;28;20096;-62
2022/03/08 04:49:50;;;;;;;7.05;6.18;;;3.20;68.80;;;;;;5077514;28;20028;-62
2022/03/08 04:52:16;;;;;;;7.30;6.15;;;3.30;68.60;;;;;;5077248;28;20087;-62
2022/03/08 04:54:42;;;;;;;6.65;4.32;;;3.30;68.30;;;;;;5077907;28;20136;-62
2022/03/08 04:57:08;;;;;;;6.00;4.13;;;3.30;68.30;;;;;;5071476;28;20031;-62
2022/03/08 04:59:33;;;;;;;5.07;3.65;;;3.20;68.40;;;;;;5077478;28;20032;-62
2022/03/08 05:01:59;;;;;;;7.07;5.85;;;3.20;68.60;;;;;;5074010;28;20116;-62
2022/03/08 05:04:25;;;;;;;6.43;4.03;;;3.30;68.70;;;;;;5062726;28;20020;-63
2022/03/08 05:06:51;;;;;;;6.13;5.43;;;3.30;68.60;;;;;;5071233;28;20029;-62
2022/03/08 05:09:17;;;;;;;6.38;4.38;;;3.30;68.60;;;;;;5077258;28;20107;-62
2022/03/08 05:11:43;;;;;;;7.75;5.53;;;3.30;68.50;;;;;;5089192;28;20083;-62
2022/03/08 05:14:09;;;;;;;7.13;5.20;;;3.30;68.60;;;;;;5077467;28;20029;-62
2022/03/08 05:16:34;;;;;;;6.43;4.05;;;3.40;68.40;;;;;;5075914;28;20579;-62
2022/03/08 05:19:00;;;;;;;5.55;5.05;;;3.40;68.30;;;;;;5066522;28;20729;-62
2022/03/08 05:21:26;;;;;;;7.50;5.45;;;3.40;68.50;;;;;;5082425;28;20031;-62
2022/03/08 05:23:52;;;;;;;7.60;5.25;;;3.40;68.50;;;;;;5067879;28;20056;-62
2022/03/08 05:26:18;;;;;;;5.18;3.90;;;3.40;68.30;;;;;;5068080;28;20016;-62
2022/03/08 05:28:43;;;;;;;6.82;3.80;;;3.40;68.30;;;;;;5077161;28;20039;-62
2022/03/08 05:31:10;;;;;;;5.55;4.70;;;3.30;68.40;;;;;;5076984;28;20017;-62
2022/03/08 05:33:36;;;;;;;5.47;3.78;;;3.40;68.60;;;;;;5077157;28;20024;-62
2022/03/08 05:36:03;;;;;;;6.15;5.10;;;3.40;68.60;;;;;;5076969;28;20027;-62
2022/03/08 05:38:29;;;;;;;7.07;5.88;;;3.40;68.60;;;;;;5076729;28;20075;-62
2022/03/08 05:40:54;;;;;;;5.80;4.32;;;3.50;68.50;;;;;;5077141;28;20480;-62
2022/03/08 05:43:20;;;;;;;5.55;3.70;;;3.40;68.40;;;;;;5070757;28;20039;-62
2022/03/08 05:45:46;;;;;;;6.60;5.20;;;3.40;68.50;;;;;;5064366;28;20025;-62
2022/03/08 05:48:12;;;;;;;6.90;4.13;;;3.40;68.60;;;;;;5076390;28;20028;-62
2022/03/08 05:50:38;;;;;;;7.07;5.35;;;3.40;69.20;;;;;;5075809;28;20033;-62
2022/03/08 05:53:04;;;;;;;7.22;5.82;;;3.40;68.80;;;;;;5076882;28;20029;-62
2022/03/08 05:55:29;;;;;;;6.93;5.40;;;3.50;68.60;;;;;;5076216;28;20059;-62
2022/03/08 05:57:55;;;;;;;6.30;4.18;;;3.50;68.90;;;;;;5072953;28;20020;-62
2022/03/08 06:00:21;;;;;;;5.82;3.88;;;3.50;69.30;;;;;;5066383;28;20032;-62
2022/03/08 06:02:47;;;;;;;6.78;5.38;;;3.50;70.00;;;;;;5058157;28;20024;-62
2022/03/08 06:05:13;;;;;;;6.40;4.32;;;3.80;70.40;;;;;;5075546;28;20025;-62
2022/03/08 06:07:39;;;;;;;7.20;4.70;;;4.10;70.10;;;;;;5076359;28;20024;-62
2022/03/08 06:10:07;;;;;;;5.95;4.90;;;4.30;70.50;;;;;;5072297;28;20088;-62
2022/03/08 06:12:34;;;;;;;6.13;3.97;;;4.70;70.10;;;;;;5069092;28;20092;-62
2022/03/08 06:15:00;;;;;;;6.03;5.35;;;5.10;69.20;;;;;;5062522;28;20385;-62
2022/03/08 06:17:25;;;;;;;5.95;5.13;;;5.60;68.60;;;;;;5078073;28;20019;-62
2022/03/08 06:19:51;;;;;;;7.50;5.50;;;6.10;67.30;;;;;;5071623;28;20060;-62
2022/03/08 06:22:17;;;;;;;4.55;3.90;;;6.50;65.50;;;;;;5058863;28;20024;-62
2022/03/08 06:24:44;;;;;;;6.00;4.43;;;6.60;65.10;;;;;;5072179;28;20052;-62
2022/03/08 06:27:10;;;;;;;6.43;4.93;;;6.60;64.50;;;;;;5075544;28;20033;-62
2022/03/08 06:29:35;;;;;;;5.30;3.90;;;6.60;63.60;;;;;;5078629;28;20432;-62
2022/03/08 06:32:02;;;;;;;5.93;4.95;;;6.30;63.50;;;;;;5069602;28;20043;-62
2022/03/08 06:34:28;;;;;;;5.60;3.63;;;6.10;63.90;;;;;;5052702;28;20395;-63
2022/03/08 06:36:54;;;;;;;5.70;4.40;;;5.80;64.20;;;;;;5081231;28;20104;-63
2022/03/08 06:39:19;;;;;;;6.35;4.82;;;5.60;64.80;;;;;;5074872;28;20043;-62
2022/03/08 06:41:45;;;;;;;6.63;5.60;;;5.30;64.80;;;;;;5075016;28;20503;-62
2022/03/08 06:44:11;;;;;;;6.93;3.88;;;5.10;65.30;;;;;;5063551;28;20484;-62
2022/03/08 06:46:41;;;;;;;6.05;5.07;;;4.90;65.90;;;;;;5048207;28;20024;-63
2022/03/08 06:49:08;;;;;;;6.88;5.57;;;4.90;66.70;;;;;;5075556;28;20025;-63
2022/03/08 06:51:34;;;;;;;6.72;5.80;;;4.90;66.70;;;;;;5075755;28;20029;-62
2022/03/08 06:54:00;;;;;;;7.20;4.30;;;4.90;66.70;;;;;;5075039;28;20032;-62
2022/03/08 06:56:26;;;;;;;6.60;5.45;;;4.80;66.70;;;;;;5076527;28;20566;-63
2022/03/08 06:58:52;;;;;;;5.72;4.57;;;4.90;67.00;;;;;;5077737;28;20488;-63
2022/03/08 07:01:18;;;;;;;6.60;5.85;;;4.80;66.90;;;;;;5081043;28;20024;-63
2022/03/08 07:03:44;;;;;;;5.57;3.92;;;4.90;67.10;;;;;;5077515;28;20032;-63
2022/03/08 07:06:10;;;;;;;6.25;5.47;;;4.90;66.90;;;;;;5064725;28;20392;-63
2022/03/08 07:08:37;;;;;;;6.25;5.45;;;4.90;67.30;;;;;;5072251;28;20093;-63
2022/03/08 07:11:04;;;;;;;8.43;6.00;;;5.00;67.00;;;;;;5080883;28;20012;-63
2022/03/08 07:13:30;;;;;;;6.60;3.92;;;5.10;66.60;;;;;;5058297;28;20029;-63
2022/03/08 07:15:56;;;;;;;5.55;4.82;;;5.10;66.70;;;;;;5076728;28;20146;-63
2022/03/08 07:18:23;;;;;;;4.82;3.53;;;5.20;66.80;;;;;;5052472;28;20199;-63
2022/03/08 07:20:50;;;;;;;8.10;4.85;;;5.20;66.50;;;;;;5069039;28;20480;-63
2022/03/08 07:23:16;;;;;;;6.80;5.00;;;5.30;66.20;;;;;;5070859;28;20026;-62
2022/03/08 07:25:42;;;;;;;6.80;5.43;;;5.40;66.00;;;;;;5079755;28;20029;-63
2022/03/08 07:28:08;;;;;;;4.15;3.75;;;5.50;65.70;;;;;;5079691;28;20377;-63
2022/03/08 07:30:35;;;;;;;5.30;4.63;;;5.50;65.20;;;;;;5075872;28;20107;-63
2022/03/08 07:33:01;;;;;;;7.80;3.63;;;5.60;65.50;;;;;;5075944;28;20017;-63
2022/03/08 07:35:27;;;;;;;6.15;4.50;;;5.60;65.30;;;;;;5075732;28;20085;-63
2022/03/08 07:37:53;;;;;;;6.65;4.82;;;5.60;65.10;;;;;;5063714;28;20066;-58
2022/03/08 07:40:19;;;;;;;5.80;3.75;;;5.70;64.60;;;;;;5065859;28;20056;-57
2022/03/08 07:42:45;;;;;;;5.43;4.80;;;5.70;64.50;;;;;;5071353;28;20098;-58
2022/03/08 07:45:10;;;;;;;4.78;4.32;;;5.70;64.50;;;;;;5071825;28;20017;-59
2022/03/08 07:47:36;;;;;;;6.00;4.55;;;5.80;64.20;;;;;;5071714;28;20095;-58
2022/03/08 07:50:04;;;;;;;4.60;4.10;;;5.90;64.10;;;;;;5068405;28;20029;-58
2022/03/08 07:52:30;;;;;;;5.20;3.83;;;5.90;64.30;;;;;;5065774;28;20138;-58
2022/03/08 07:54:56;;;;;;;6.28;4.65;;;5.90;63.70;;;;;;5069041;28;20028;-59
2022/03/08 07:57:22;;;;;;;5.80;5.05;;;5.80;64.00;;;;;;5060576;28;20078;-59
2022/03/08 07:59:48;;;;;;;4.57;3.78;;;5.80;64.00;;;;;;5064030;28;20121;-59
2022/03/08 08:02:14;;;;;;;6.28;4.78;;;5.80;64.50;;;;;;5070452;28;20029;-59
2022/03/08 08:04:40;;;;;;;6.82;4.85;;;5.80;64.50;;;;;;5073243;28;20028;-59
2022/03/08 08:07:06;;;;;;;5.88;5.00;;;5.90;64.10;;;;;;5063255;28;20055;-59
2022/03/08 08:09:33;;;;;;;5.78;3.63;;;6.00;64.20;;;;;;5070152;28;20281;-60
2022/03/08 08:11:59;;;;;;;5.07;4.30;;;5.90;64.10;;;;;;5065060;28;20056;-60
2022/03/08 08:14:26;;;;;;;7.55;4.47;;;6.00;64.20;;;;;;5065680;28;20025;-60
2022/03/08 08:16:52;;;;;;;5.43;4.00;;;6.10;63.30;;;;;;5063750;28;20052;-60
2022/03/08 08:19:21;;;;;;;4.57;3.88;;;6.10;62.50;;;;;;5069567;28;20059;-59
2022/03/08 08:21:47;;;;;;;4.90;4.07;;;6.20;62.10;;;;;;5065408;28;20472;-58
2022/03/08 08:24:13;;;;;;;5.05;4.22;;;6.20;61.60;;;;;;5061700;28;20023;-59
2022/03/08 08:26:39;;;;;;;4.13;3.72;;;6.20;61.10;;;;;;5066837;28;20111;-58
2022/03/08 08:29:05;;;;;;;4.57;3.38;;;6.30;60.80;;;;;;5066134;28;20484;-57
2022/03/08 08:31:34;;;;;;;5.65;3.80;;;6.20;61.10;;;;;;5062999;28;20036;-59
2022/03/08 08:34:00;;;;;;;4.78;4.13;;;6.30;61.00;;;;;;5062038;28;20467;-58
2022/03/08 08:36:26;;;;;;;4.80;4.18;;;6.40;60.70;;;;;;5058011;28;20073;-57
2022/03/08 08:38:52;;;;;;;5.85;4.07;;;6.50;60.80;;;;;;5062862;28;20040;-57
2022/03/08 08:41:18;;;;;;;3.83;3.28;;;6.50;60.30;;;;;;5064756;28;20032;-58
2022/03/08 08:43:44;;;;;;;4.05;3.10;;;6.50;60.30;;;;;;5067200;28;20504;-57
2022/03/08 08:46:10;;;;;;;4.72;3.05;;;6.50;60.20;;;;;;5065169;28;20119;-60
2022/03/08 08:48:36;;;;;;;3.72;3.30;;;6.50;60.40;;;;;;5061507;28;20595;-59
2022/03/08 08:51:02;;;;;;;5.95;4.30;;;6.50;60.20;;;;;;5072378;28;20041;-59
2022/03/08 08:53:28;;;;;;;4.15;3.67;;;6.60;60.00;;;;;;5064516;28;20032;-57
2022/03/08 08:55:54;;;;;;;4.90;3.97;;;6.60;59.70;;;;;;5068719;28;20032;-58
2022/03/08 08:58:20;;;;;;;5.40;4.10;;;6.70;60.00;;;;;;5064499;28;20051;-57
2022/03/08 09:00:45;;;;;;;4.45;3.63;;;6.70;59.10;;;;;;5066097;28;20024;-58
2022/03/08 09:03:14;;;;;;;5.38;3.75;;;6.70;59.00;;;;;;5070528;28;20031;-58
2022/03/08 09:05:47;;;;;;;5.78;3.17;;;6.80;58.60;;;;;;5074107;28;20025;-59
2022/03/08 09:08:16;;;;;;;3.47;3.15;;;6.80;58.70;;;;;;5069606;28;20896;-58
2022/03/08 09:10:42;;;;;;;4.78;3.78;;;6.80;58.60;;;;;;5069679;28;20028;-59
2022/03/08 09:13:08;;;;;;;5.65;3.22;;;6.80;58.40;;;;;;5063322;28;20114;-59
2022/03/08 09:15:35;;;;;;;4.22;3.83;;;6.80;58.40;;;;;;5065504;28;20052;-58
2022/03/08 09:18:05;;;;;;;4.60;4.13;;;6.80;58.50;;;;;;5075692;28;20498;-59
2022/03/08 09:20:31;;;;;;;4.82;3.95;;;6.80;58.40;;;;;;5067203;28;20040;-58
2022/03/08 09:22:57;;;;;;;5.50;4.38;;;6.80;58.30;;;;;;5068633;28;20233;-57
2022/03/08 09:25:23;;;;;;;5.68;4.03;;;6.80;58.30;;;;;;5062874;28;20111;-58
2022/03/08 09:27:50;;;;;;;6.35;4.07;;;6.80;58.40;;;;;;5062283;28;20028;-57
2022/03/08 09:30:16;;;;;;;4.78;4.05;;;6.80;58.50;;;;;;5060330;28;20028;-58
2022/03/08 09:32:42;;;;;;;5.20;3.80;;;6.80;58.50;;;;;;5060088;28;20028;-58
2022/03/08 09:35:08;;;;;;;4.47;2.75;;;6.80;58.80;;;;;;5066916;28;20040;-58
2022/03/08 09:37:34;;;;;;;3.00;2.58;;;6.80;58.90;;;;;;5067871;28;20035;-59
2022/03/08 09:40:00;;;;;;;3.05;2.75;;;6.70;59.10;;;;;;5058269;28;20041;-58
2022/03/08 09:42:26;;;;;;;4.50;2.90;;;6.80;59.00;;;;;;5058863;28;20052;-60
2022/03/08 09:44:52;;;;;;;4.65;3.28;;;6.80;59.20;;;;;;5063759;28;20514;-60
2022/03/08 09:47:22;;;;;;;3.50;3.03;;;6.80;59.20;;;;;;5064235;28;20055;-58
2022/03/08 09:49:49;;;;;;;3.17;2.80;;;6.80;59.00;;;;;;5059761;28;20978;-60
2022/03/08 09:52:15;;;;;;;4.00;2.75;;;6.80;59.00;;;;;;5055190;28;20087;-60
2022/03/08 09:54:44;;;;;;;4.60;3.15;;;6.80;58.90;;;;;;5057162;28;20052;-60
2022/03/08 09:57:12;;;;;;;3.90;2.95;;;6.80;59.00;;;;;;5068749;28;20036;-60
2022/03/08 09:59:38;;;;;;;4.55;3.53;;;6.90;59.00;;;;;;5047947;28;20044;-60
2022/03/08 10:02:04;;;;;;;5.88;3.58;;;6.90;59.10;;;;;;5061660;28;20091;-60
2022/03/08 10:04:30;;;;;;;5.00;3.47;;;6.90;59.80;;;;;;5062786;28;20588;-59
2022/03/08 10:06:57;;;;;;;4.93;3.40;;;6.90;60.70;;;;;;5060155;28;20043;-59
2022/03/08 10:09:23;;;;;;;3.97;3.38;;;6.90;61.30;;;;;;5066893;28;20404;-58
2022/03/08 10:11:55;;;;;;;3.67;3.30;;;6.80;61.80;;;;;;5064047;28;20071;-59
2022/03/08 10:14:39;;;;;;;3.67;3.30;;;6.70;62.50;;;;;;5062216;28;20029;-60
2022/03/08 10:17:10;;;;;;;4.43;3.30;;;6.70;63.00;;;;;;5067710;28;20157;-59
2022/03/08 10:19:46;;;;;;;5.30;4.28;;;6.60;63.20;;;;;;5066296;28;20480;-60
2022/03/08 10:22:29;;;;;;;6.10;4.45;;;6.50;63.90;;;;;;5065845;28;20103;-59
2022/03/08 10:25:13;;;;;;;5.07;4.57;;;6.60;64.40;;;;;;5068588;28;20077;-60
2022/03/08 10:27:59;;;;;;;5.13;4.50;;;6.60;64.70;;;;;;5066362;28;20500;-60
2022/03/08 10:30:42;;;;;;;5.07;3.92;;;6.60;64.90;;;;;;5063984;28;20496;-60
2022/03/08 10:33:08;;;;;;;4.25;3.60;;;6.60;65.10;;;;;;5065540;28;20032;-60
2022/03/08 10:35:39;;;;;;;3.95;3.50;;;6.60;65.40;;;;;;5048301;28;20036;-59
2022/03/08 10:38:12;;;;;;;4.63;3.78;;;6.60;65.60;;;;;;5061124;28;20036;-60
2022/03/08 10:40:40;;;;;;;4.80;3.67;;;6.60;65.80;;;;;;5067416;28;20071;-60
2022/03/08 10:43:14;;;;;;;4.47;3.80;;;6.60;65.80;;;;;;5064297;28;20052;-60
2022/03/08 10:45:49;;;;;;;5.13;4.60;;;6.60;66.20;;;;;;5069811;28;20052;-60
2022/03/08 10:48:18;;;;;;;6.10;4.72;;;6.60;66.50;;;;;;5071073;28;20023;-61
2022/03/08 10:50:46;;;;;;;5.57;3.90;;;6.60;66.60;;;;;;5067838;28;20029;-61
2022/03/08 10:53:13;;;;;;;5.00;4.50;;;6.60;66.50;;;;;;5065779;28;20093;-60
2022/03/08 10:55:47;;;;;;;5.40;4.40;;;6.70;66.80;;;;;;5069619;28;20389;-61
2022/03/08 10:58:14;;;;;;;5.95;4.30;;;6.80;66.50;;;;;;5066027;28;20029;-60
2022/03/08 11:00:53;;;;;;;4.30;3.90;;;6.80;66.10;;;;;;5067144;28;20020;-61
2022/03/08 11:03:21;;;;;;;4.65;4.20;;;6.80;65.70;;;;;;5068264;28;20055;-61
2022/03/08 11:06:04;;;;;;;4.35;3.90;;;6.80;65.50;;;;;;5051161;28;20427;-61
2022/03/08 11:08:31;;;;;;;4.53;4.00;;;6.80;65.60;;;;;;5064276;28;20032;-61
2022/03/08 11:10:57;;;;;;;5.80;4.72;;;6.70;65.30;;;;;;5069724;28;20016;-60
2022/03/08 11:13:23;;;;;;;5.15;4.20;;;6.70;65.40;;;;;;5068400;28;20044;-61
2022/03/08 11:15:48;;;;;;;4.53;3.80;;;6.70;65.40;;;;;;5069123;28;20048;-61
2022/03/08 11:18:15;;;;;;;4.50;3.95;;;6.70;65.40;;;;;;5068386;28;20039;-60
2022/03/08 11:20:43;;;;;;;4.93;3.72;;;6.70;65.40;;;;;;5062215;28;20054;-61
2022/03/08 11:23:09;;;;;;;4.47;4.07;;;6.70;65.40;;;;;;5060589;28;20541;-62
2022/03/08 11:25:40;;;;;;;4.28;3.72;;;6.70;65.70;;;;;;5059207;28;20112;-61
2022/03/08 11:28:07;;;;;;;3.90;2.90;;;6.70;66.00;;;;;;5057895;28;20115;-61
2022/03/08 11:30:42;;;;;;;5.00;3.95;;;6.60;65.90;;;;;;5064054;28;20040;-61
2022/03/08 11:33:32;;;;;;;4.95;4.28;;;6.60;66.30;;;;;;5063161;28;20114;-60
2022/03/08 11:36:06;;;;;;;4.68;4.15;;;6.60;66.70;;;;;;5065189;28;20449;-60
2022/03/08 11:38:33;;;;;;;4.05;3.50;;;6.50;66.90;;;;;;5062104;28;20049;-61
2022/03/08 11:40:59;;;;;;;3.90;3.55;;;6.40;67.00;;;;;;5066281;28;20052;-60
2022/03/08 11:43:41;;;;;;;4.05;2.83;;;6.30;67.20;;;;;;5059937;28;20078;-62
2022/03/08 11:46:24;;;;;;;2.95;2.67;;;6.10;67.30;;;;;;5065425;28;20480;-61
2022/03/08 11:49:03;;;;;;;2.60;2.40;;;5.90;67.30;;;;;;5063784;28;20028;-62
2022/03/08 11:51:30;;;;;;;3.05;2.65;;;5.80;67.50;;;;;;5063968;28;20033;-62
2022/03/08 11:54:05;;;;;;;7.22;4.65;;;5.80;67.40;;;;;;5062499;28;20521;-62
2022/03/08 11:56:44;;;;;;;7.50;4.90;;;5.80;67.00;;;;;;5065170;28;20025;-64
2022/03/08 11:59:11;;;;;;;11.35;7.28;;;5.80;66.60;;;;;;5061009;28;20036;-61
2022/03/08 12:01:38;;;;;;;7.95;3.40;;;5.80;66.20;;;;;;5061875;28;20029;-61
2022/03/08 12:04:10;;;;;;;2.97;2.70;;;5.70;66.00;;;;;;5066738;28;20028;-61
2022/03/08 12:06:36;;;;;;;;;;;5.70;65.60;;;;;;5065809;28;20021;-59
2022/03/08 12:09:10;;;;;;;5.93;4.15;;;5.70;65.60;;;;;;5064753;28;19916;-62
2022/03/08 12:11:45;;;;;;;4.93;3.90;;;5.70;66.00;;;;;;5060070;28;20048;-61
2022/03/08 12:14:23;;;;;;;4.93;3.88;;;5.80;65.70;;;;;;5064552;28;20719;-62
2022/03/08 12:16:51;;;;;;;5.15;3.13;;;5.80;65.60;;;;;;5060181;28;20031;-61
2022/03/08 12:19:48;;;;;;;3.63;3.08;;;5.80;65.70;;;;;;5063500;28;20061;-61
2022/03/08 12:22:19;;;;;;;3.63;3.15;;;6.00;65.00;;;;;;5050559;28;20518;-61
2022/03/08 12:25:08;;;;;;;;;;;6.10;64.50;;;;;;5063714;28;20384;-60
2022/03/08 12:27:48;;;;;;;4.10;3.00;;;6.10;64.40;;;;;;5061677;28;20356;-60
2022/03/08 12:30:14;;;;;;;2.43;2.17;;;6.30;63.30;;;;;;5062697;28;20051;-61
2022/03/08 12:32:43;;;;;;;3.42;2.90;;;6.40;63.30;;;;;;5064223;28;20028;-60
2022/03/08 12:35:21;;;;;;;4.57;3.20;;;6.50;62.70;;;;;;5062261;28;20025;-60
2022/03/08 12:37:48;;;;;;;4.43;3.13;;;6.60;62.20;;;;;;5045548;28;20032;-61
2022/03/08 12:40:17;;;;;;;2.55;2.22;;;6.70;61.90;;;;;;5060166;28;20123;-61
2022/03/08 12:42:58;;;;;;;1.85;1.75;;;6.80;61.40;;;;;;5061598;28;20028;-60
2022/03/08 12:45:33;;;;;;;2.08;1.95;;;6.90;61.60;;;;;;5060864;28;20033;-60
2022/03/08 12:48:10;;;;;;;2.25;2.13;;;6.90;61.90;;;;;;5067235;28;20040;-61
2022/03/08 12:50:52;;;;;;;2.58;2.38;;;7.00;62.10;;;;;;5062103;28;20024;-62
2022/03/08 12:53:18;;;;;;;;;;;7.10;62.20;;;;;;5057612;28;20500;-60
2022/03/08 12:55:47;;;;;;;2.75;2.55;;;6.90;62.00;;;;;;5061642;28;19919;-60
2022/03/08 12:58:18;;;;;;;2.60;2.40;;;6.90;61.90;;;;;;5051492;28;20036;-61
2022/03/08 13:00:50;;;;;;;2.40;2.20;;;6.70;62.10;;;;;;5054202;28;20024;-60